Time;durP1;ratioP1;P1;durP2;ratioP2;P2;SDS_P1;SDS_P2;PMS_P1;PMS_P2;Temp;Humidity;BMP_temperature;BMP_pressure;BME280_temperature;BME280_humidity;BME280_pressure;Samples;Min_cycle;Max_cycle;Signal;HPM_P1;HPM_P2
2023/05/07 00:01:43;;;;;;;14.48;10.18;;;13.60;99.90;;;;;;5056130;28;20423;-64
2023/05/07 00:04:08;;;;;;;16.38;10.93;;;13.60;99.90;;;;;;5056704;28;20075;-64
2023/05/07 00:06:34;;;;;;;14.18;11.30;;;13.60;99.90;;;;;;5056241;28;20403;-64
2023/05/07 00:09:00;;;;;;;15.07;11.30;;;13.60;99.90;;;;;;5056130;28;20036;-64
2023/05/07 00:11:26;;;;;;;14.25;11.68;;;13.50;99.90;;;;;;5055077;28;20025;-64
2023/05/07 00:13:52;;;;;;;12.55;10.70;;;13.60;99.90;;;;;;5056027;28;20032;-64
2023/05/07 00:16:17;;;;;;;18.38;11.23;;;13.60;99.90;;;;;;5056457;28;20464;-64
2023/05/07 00:18:43;;;;;;;13.52;11.02;;;13.50;99.90;;;;;;5056348;28;20518;-64
2023/05/07 00:21:09;;;;;;;17.00;11.23;;;13.50;99.90;;;;;;5056115;28;20029;-64
2023/05/07 00:23:34;;;;;;;15.27;11.10;;;13.50;99.90;;;;;;5056208;28;20370;-64
2023/05/07 00:26:00;;;;;;;16.23;11.43;;;13.50;99.90;;;;;;5056270;28;20486;-65
2023/05/07 00:28:25;;;;;;;15.95;10.88;;;13.50;99.90;;;;;;5055968;28;20079;-64
2023/05/07 00:30:51;;;;;;;13.30;11.23;;;13.50;99.90;;;;;;5055947;28;20025;-64
2023/05/07 00:33:16;;;;;;;13.52;10.32;;;13.50;99.90;;;;;;5055610;28;20036;-64
2023/05/07 00:35:42;;;;;;;19.08;11.32;;;13.50;99.90;;;;;;5055556;28;20028;-64
2023/05/07 00:38:08;;;;;;;12.55;10.90;;;13.50;99.90;;;;;;5055808;28;20131;-64
2023/05/07 00:40:34;;;;;;;16.17;11.13;;;13.50;99.90;;;;;;5055700;28;20029;-64
2023/05/07 00:42:59;;;;;;;12.13;10.75;;;13.50;99.90;;;;;;5055670;28;20035;-64
2023/05/07 00:45:27;;;;;;;15.02;10.82;;;13.40;99.90;;;;;;5055356;28;20028;-65
2023/05/07 00:47:57;;;;;;;15.48;10.70;;;13.40;99.90;;;;;;5055199;28;20036;-64
2023/05/07 00:50:23;;;;;;;15.65;10.98;;;13.40;99.90;;;;;;5055266;28;20364;-64
2023/05/07 00:52:48;;;;;;;14.80;11.63;;;13.40;99.90;;;;;;5055524;28;20036;-64
2023/05/07 00:55:14;;;;;;;16.05;13.20;;;13.40;99.90;;;;;;5055740;28;20056;-64
2023/05/07 00:57:41;;;;;;;18.08;13.25;;;13.40;99.90;;;;;;5055408;28;20035;-64
2023/05/07 01:00:09;;;;;;;20.02;14.15;;;13.40;99.90;;;;;;5055368;28;20530;-64
2023/05/07 01:02:37;;;;;;;19.33;13.75;;;13.40;99.90;;;;;;5055321;28;20064;-64
2023/05/07 01:05:05;;;;;;;15.88;12.35;;;13.40;99.90;;;;;;5055282;28;20021;-64
2023/05/07 01:07:32;;;;;;;18.40;12.32;;;13.40;99.90;;;;;;5054951;28;20478;-64
2023/05/07 01:09:58;;;;;;;18.85;13.48;;;13.40;99.90;;;;;;5055473;28;20033;-64
2023/05/07 01:12:25;;;;;;;15.68;12.68;;;13.30;99.90;;;;;;5055122;28;20029;-64
2023/05/07 01:14:51;;;;;;;17.05;13.02;;;13.30;99.90;;;;;;5055091;28;20032;-64
2023/05/07 01:17:17;;;;;;;14.30;12.80;;;13.30;99.90;;;;;;5054726;28;20542;-64
2023/05/07 01:19:43;;;;;;;18.60;12.57;;;13.30;99.90;;;;;;5054591;28;20064;-65
2023/05/07 01:22:12;;;;;;;19.73;13.77;;;13.30;99.90;;;;;;5054802;28;20025;-64
2023/05/07 01:24:37;;;;;;;19.17;14.88;;;13.30;99.90;;;;;;5054534;28;20105;-64
2023/05/07 01:27:04;;;;;;;21.25;16.30;;;13.30;99.90;;;;;;5054580;28;20456;-64
2023/05/07 01:29:29;;;;;;;24.88;16.80;;;13.30;99.90;;;;;;5053383;28;20483;-64
2023/05/07 01:31:58;;;;;;;20.50;15.52;;;13.30;99.90;;;;;;5054510;28;20032;-64
2023/05/07 01:34:26;;;;;;;22.55;15.98;;;13.30;99.90;;;;;;5053722;28;20032;-64
2023/05/07 01:36:55;;;;;;;23.00;16.70;;;13.30;99.90;;;;;;5053996;28;20421;-64
2023/05/07 01:39:22;;;;;;;18.70;14.68;;;13.30;99.90;;;;;;5054573;28;20368;-64
2023/05/07 01:41:48;;;;;;;22.33;15.65;;;13.30;99.90;;;;;;5054869;28;20525;-64
2023/05/07 01:44:15;;;;;;;16.40;13.73;;;13.30;99.90;;;;;;5054492;28;20104;-64
2023/05/07 01:46:40;;;;;;;19.10;14.95;;;13.30;99.90;;;;;;5054376;28;20479;-64
2023/05/07 01:49:06;;;;;;;18.45;14.80;;;13.30;99.90;;;;;;5054612;28;20029;-64
2023/05/07 01:51:32;;;;;;;17.08;13.75;;;13.30;99.90;;;;;;5054384;28;20021;-64
2023/05/07 01:53:57;;;;;;;17.98;14.63;;;13.30;99.90;;;;;;5054505;28;20052;-64
2023/05/07 01:56:24;;;;;;;20.50;14.77;;;13.30;99.90;;;;;;5054573;28;20021;-64
2023/05/07 01:58:51;;;;;;;19.67;14.93;;;13.30;99.90;;;;;;5054211;28;20123;-65
2023/05/07 02:01:17;;;;;;;22.55;14.13;;;13.30;99.90;;;;;;5053917;28;20471;-64
2023/05/07 02:03:43;;;;;;;18.38;14.45;;;13.20;99.90;;;;;;5054385;28;20031;-64
2023/05/07 02:06:08;;;;;;;22.30;14.98;;;13.30;99.90;;;;;;5054607;28;20041;-64
2023/05/07 02:08:34;;;;;;;23.02;15.50;;;13.20;99.90;;;;;;5053095;28;20129;-64
2023/05/07 02:10:59;;;;;;;21.20;15.25;;;13.30;99.90;;;;;;5053814;28;20036;-64
2023/05/07 02:13:28;;;;;;;20.02;15.65;;;13.30;99.90;;;;;;5054082;28;20100;-64
2023/05/07 02:15:54;;;;;;;19.23;14.93;;;13.30;99.90;;;;;;5054453;28;20028;-64
2023/05/07 02:18:19;;;;;;;20.42;15.00;;;13.30;99.90;;;;;;5053964;28;20096;-64
2023/05/07 02:20:45;;;;;;;18.45;15.77;;;13.30;99.90;;;;;;5054241;28;20029;-64
2023/05/07 02:23:10;;;;;;;25.08;15.77;;;13.20;99.90;;;;;;5053867;28;20390;-64
2023/05/07 02:25:36;;;;;;;19.38;16.13;;;13.20;99.90;;;;;;5054296;28;20037;-64
2023/05/07 02:28:02;;;;;;;21.25;15.52;;;13.20;99.90;;;;;;5053777;28;20055;-64
2023/05/07 02:30:28;;;;;;;20.48;16.13;;;13.20;99.90;;;;;;5053552;28;20025;-65
2023/05/07 02:32:54;;;;;;;20.92;16.13;;;13.20;99.90;;;;;;5052409;28;20394;-64
2023/05/07 02:35:20;;;;;;;19.90;15.45;;;13.20;99.90;;;;;;5053934;28;20108;-64
2023/05/07 02:37:46;;;;;;;19.08;15.90;;;13.20;99.90;;;;;;5052963;28;20068;-64
2023/05/07 02:40:12;;;;;;;19.50;15.32;;;13.20;99.90;;;;;;5054178;28;20033;-64
2023/05/07 02:42:37;;;;;;;21.50;16.15;;;13.20;99.90;;;;;;5053692;28;20029;-64
2023/05/07 02:45:03;;;;;;;24.52;16.00;;;13.20;99.90;;;;;;5053653;28;20025;-64
2023/05/07 02:47:29;;;;;;;25.15;16.30;;;13.20;99.90;;;;;;5053743;28;20429;-64
2023/05/07 02:49:55;;;;;;;28.05;17.30;;;13.20;99.90;;;;;;5053188;28;20109;-64
2023/05/07 02:52:21;;;;;;;24.73;16.50;;;13.10;99.90;;;;;;5053879;28;20075;-64
2023/05/07 02:54:47;;;;;;;20.67;15.40;;;13.10;99.90;;;;;;5053503;28;20091;-65
2023/05/07 02:57:12;;;;;;;26.83;16.50;;;13.20;99.90;;;;;;5053823;28;20414;-64
2023/05/07 02:59:38;;;;;;;21.42;15.57;;;13.10;99.90;;;;;;5053518;28;20032;-64
2023/05/07 03:02:03;;;;;;;22.20;17.33;;;13.10;99.90;;;;;;5053694;28;20036;-64
2023/05/07 03:04:29;;;;;;;23.98;18.48;;;13.10;99.90;;;;;;5052887;28;20104;-64
2023/05/07 03:06:55;;;;;;;25.80;17.20;;;13.10;99.90;;;;;;5053422;28;20025;-64
2023/05/07 03:09:20;;;;;;;23.52;18.85;;;13.10;99.90;;;;;;5053167;28;20036;-64
2023/05/07 03:11:46;;;;;;;31.17;19.85;;;13.10;99.90;;;;;;5053123;28;20514;-64
2023/05/07 03:14:11;;;;;;;28.48;18.58;;;13.10;99.90;;;;;;5053622;28;20032;-64
2023/05/07 03:16:38;;;;;;;25.58;18.88;;;13.10;99.90;;;;;;5053098;28;20017;-64
2023/05/07 03:19:03;;;;;;;29.38;19.92;;;13.10;99.90;;;;;;5054086;28;20028;-66
2023/05/07 03:21:30;;;;;;;25.30;18.83;;;13.10;99.90;;;;;;5057532;28;20433;-65
2023/05/07 03:23:56;;;;;;;28.20;20.60;;;13.00;99.90;;;;;;5057141;28;20021;-65
2023/05/07 03:26:21;;;;;;;34.20;20.35;;;13.00;99.90;;;;;;5057288;28;20025;-64
2023/05/07 03:28:47;;;;;;;28.05;19.42;;;13.00;99.90;;;;;;5056475;28;20033;-65
2023/05/07 03:31:13;;;;;;;26.67;20.70;;;12.90;99.90;;;;;;5057316;28;20071;-65
2023/05/07 03:33:50;;;;;;;28.20;20.02;;;12.90;99.90;;;;;;5056460;28;20386;-65
2023/05/07 03:36:16;;;;;;;29.52;21.67;;;12.90;99.90;;;;;;5055093;28;20041;-65
2023/05/07 03:38:41;;;;;;;32.42;21.10;;;12.90;99.90;;;;;;5056828;28;20021;-65
2023/05/07 03:41:07;;;;;;;28.35;20.92;;;12.90;99.90;;;;;;5056838;28;20036;-65
2023/05/07 03:43:33;;;;;;;27.95;20.73;;;12.90;99.90;;;;;;5056882;28;20033;-64
2023/05/07 03:45:58;;;;;;;30.85;21.75;;;12.90;99.90;;;;;;5056631;28;20043;-65
2023/05/07 03:48:24;;;;;;;33.25;22.67;;;12.80;99.90;;;;;;5056704;28;20033;-66
2023/05/07 03:50:50;;;;;;;36.35;23.85;;;12.90;99.90;;;;;;5056471;28;20025;-64
2023/05/07 03:53:15;;;;;;;32.42;22.95;;;12.90;99.90;;;;;;5056927;28;20459;-65
2023/05/07 03:55:41;;;;;;;37.15;24.35;;;12.90;99.90;;;;;;5056901;28;20056;-65
2023/05/07 03:58:07;;;;;;;37.85;25.52;;;12.90;99.90;;;;;;5056126;28;20529;-64
2023/05/07 04:00:36;;;;;;;32.40;24.15;;;12.90;99.90;;;;;;5056847;28;20044;-64
2023/05/07 04:03:03;;;;;;;37.28;25.90;;;12.90;99.90;;;;;;5056801;28;20059;-64
2023/05/07 04:05:29;;;;;;;35.00;25.30;;;12.90;99.90;;;;;;5056514;28;20025;-64
2023/05/07 04:07:54;;;;;;;42.45;27.25;;;13.00;99.90;;;;;;5056135;28;20422;-65
2023/05/07 04:10:20;;;;;;;40.72;26.48;;;13.00;99.90;;;;;;5056671;28;20087;-65
2023/05/07 04:12:46;;;;;;;41.90;26.75;;;13.00;99.90;;;;;;5056285;28;20026;-64
2023/05/07 04:15:11;;;;;;;38.65;26.30;;;13.00;99.90;;;;;;5056562;28;20021;-64
2023/05/07 04:17:37;;;;;;;38.50;27.17;;;13.00;99.90;;;;;;5056518;28;20032;-65
2023/05/07 04:20:03;;;;;;;40.08;27.83;;;13.00;99.90;;;;;;5056937;28;20068;-64
2023/05/07 04:22:28;;;;;;;42.88;28.08;;;13.00;99.90;;;;;;5055884;28;20056;-64
2023/05/07 04:24:54;;;;;;;41.65;28.60;;;13.00;99.90;;;;;;5056070;28;20529;-65
2023/05/07 04:27:21;;;;;;;44.97;29.55;;;13.00;99.90;;;;;;5055075;28;20074;-64
2023/05/07 04:29:47;;;;;;;45.80;29.63;;;13.00;99.90;;;;;;5055519;28;20109;-64
2023/05/07 04:32:13;;;;;;;44.80;32.15;;;13.00;99.90;;;;;;5055954;28;20096;-64
2023/05/07 04:34:38;;;;;;;44.42;29.83;;;13.00;99.90;;;;;;5054823;28;20471;-64
2023/05/07 04:37:04;;;;;;;39.45;29.85;;;13.00;99.90;;;;;;5055236;28;20053;-64
2023/05/07 04:39:30;;;;;;;43.13;30.65;;;13.10;99.90;;;;;;5055770;28;20130;-64
2023/05/07 04:41:55;;;;;;;43.65;31.58;;;13.10;99.90;;;;;;5055533;28;20032;-65
2023/05/07 04:44:21;;;;;;;46.75;31.73;;;13.10;99.90;;;;;;5055802;28;20229;-64
2023/05/07 04:46:46;;;;;;;55.00;34.67;;;13.10;99.90;;;;;;5055927;28;20115;-64
2023/05/07 04:49:12;;;;;;;46.58;33.63;;;13.10;99.90;;;;;;5055779;28;20368;-64
2023/05/07 04:51:38;;;;;;;48.03;32.10;;;13.10;99.90;;;;;;5056100;28;20477;-64
2023/05/07 04:54:03;;;;;;;48.05;33.55;;;13.10;99.90;;;;;;5056071;28;20467;-64
2023/05/07 04:56:30;;;;;;;50.10;33.67;;;13.20;99.90;;;;;;5055627;28;20021;-64
2023/05/07 04:58:55;;;;;;;48.28;34.22;;;13.20;99.90;;;;;;5055718;28;20467;-64
2023/05/07 05:01:21;;;;;;;48.72;35.17;;;13.30;99.90;;;;;;5055464;28;20025;-64
2023/05/07 05:03:46;;;;;;;50.67;35.83;;;13.30;99.90;;;;;;5055632;28;20448;-64
2023/05/07 05:06:12;;;;;;;50.42;32.75;;;13.30;99.90;;;;;;5054980;28;20046;-64
2023/05/07 05:08:38;;;;;;;52.17;34.70;;;13.40;99.90;;;;;;5055283;28;20032;-64
2023/05/07 05:11:03;;;;;;;48.00;33.75;;;13.40;99.90;;;;;;5055263;28;20371;-64
2023/05/07 05:13:30;;;;;;;50.20;33.00;;;13.50;99.90;;;;;;5055402;28;20171;-64
2023/05/07 05:15:55;;;;;;;50.92;33.85;;;13.50;99.90;;;;;;5054985;28;20021;-64
2023/05/07 05:18:21;;;;;;;44.88;32.55;;;13.50;99.90;;;;;;5055664;28;20036;-64
2023/05/07 05:20:47;;;;;;;45.17;32.15;;;13.50;99.90;;;;;;5054757;28;20025;-64
2023/05/07 05:23:13;;;;;;;47.35;33.03;;;13.60;99.90;;;;;;5054890;28;20032;-64
2023/05/07 05:25:40;;;;;;;45.15;34.13;;;13.60;99.90;;;;;;5055092;28;20491;-64
2023/05/07 05:28:05;;;;;;;43.42;32.72;;;13.80;99.90;;;;;;5054965;28;20498;-64
2023/05/07 05:30:31;;;;;;;44.33;33.03;;;13.90;99.90;;;;;;5055182;28;20025;-64
2023/05/07 05:32:57;;;;;;;40.92;31.08;;;14.00;99.90;;;;;;5054614;28;20433;-64
2023/05/07 05:35:22;;;;;;;42.85;30.10;;;14.10;99.90;;;;;;5055095;28;20463;-64
2023/05/07 05:37:48;;;;;;;38.95;30.13;;;14.20;99.90;;;;;;5054206;28;20060;-64
2023/05/07 05:40:13;;;;;;;38.13;28.67;;;14.40;99.90;;;;;;5055018;28;20048;-64
2023/05/07 05:42:42;;;;;;;38.20;28.73;;;14.40;99.90;;;;;;5054339;28;20033;-64
2023/05/07 05:45:08;;;;;;;37.42;28.55;;;14.50;99.90;;;;;;5054648;28;20029;-64
2023/05/07 05:47:34;;;;;;;39.58;27.88;;;14.50;99.90;;;;;;5054397;28;20036;-64
2023/05/07 05:49:59;;;;;;;36.35;27.88;;;14.50;99.90;;;;;;5053733;28;20033;-64
2023/05/07 05:52:25;;;;;;;36.53;28.23;;;14.50;99.90;;;;;;5054288;28;20029;-64
2023/05/07 05:54:51;;;;;;;38.58;27.90;;;14.60;99.90;;;;;;5054400;28;20032;-64
2023/05/07 05:57:16;;;;;;;40.08;28.15;;;14.60;99.90;;;;;;5054683;28;20054;-64
2023/05/07 05:59:42;;;;;;;33.72;25.88;;;14.80;99.90;;;;;;5054714;28;20017;-64
2023/05/07 06:02:08;;;;;;;35.63;26.88;;;15.00;99.90;;;;;;5054185;28;20027;-64
2023/05/07 06:04:33;;;;;;;33.67;25.95;;;15.20;99.90;;;;;;5054065;28;20029;-64
2023/05/07 06:06:59;;;;;;;31.75;24.85;;;15.50;99.90;;;;;;5053983;28;20086;-64
2023/05/07 06:09:24;;;;;;;31.92;24.38;;;15.70;99.90;;;;;;5053565;28;20017;-64
2023/05/07 06:11:50;;;;;;;30.52;22.60;;;15.90;99.90;;;;;;5054626;28;20025;-64
2023/05/07 06:14:16;;;;;;;31.45;24.40;;;16.10;94.90;;;;;;5054267;28;20108;-65
2023/05/07 06:16:41;;;;;;;32.33;24.63;;;16.00;62.80;;;;;;5053890;28;20466;-64
2023/05/07 06:19:07;;;;;;;30.88;24.27;;;16.00;93.80;;;;;;5054249;28;20031;-64
2023/05/07 06:21:32;;;;;;;33.17;24.30;;;16.10;75.40;;;;;;5054317;28;20029;-64
2023/05/07 06:23:58;;;;;;;29.02;24.45;;;15.90;56.30;;;;;;5054052;28;20100;-64
2023/05/07 06:26:25;;;;;;;29.90;24.80;;;16.00;91.80;;;;;;5053815;28;20021;-64
2023/05/07 06:28:50;;;;;;;36.22;24.90;;;15.90;99.70;;;;;;5053718;28;20154;-64
2023/05/07 06:31:21;;;;;;;34.05;25.05;;;16.00;88.20;;;;;;5053706;28;20517;-64
2023/05/07 06:33:49;;;;;;;32.63;25.55;;;15.90;76.30;;;;;;5052922;28;20029;-64
2023/05/07 06:36:14;;;;;;;37.30;26.10;;;15.80;94.00;;;;;;5052079;28;20040;-64
2023/05/07 06:38:40;;;;;;;36.80;27.75;;;15.60;96.20;;;;;;5053580;28;20554;-64
2023/05/07 06:41:06;;;;;;;34.88;27.40;;;15.50;99.70;;;;;;5053969;28;20483;-64
2023/05/07 06:43:32;;;;;;;35.78;27.13;;;15.50;99.90;;;;;;5054059;28;20375;-64
2023/05/07 06:45:58;;;;;;;37.00;26.83;;;15.50;99.90;;;;;;5053773;28;20029;-64
2023/05/07 06:48:24;;;;;;;36.45;27.73;;;15.60;99.90;;;;;;5053250;28;20383;-64
2023/05/07 06:50:51;;;;;;;34.33;27.75;;;15.80;96.20;;;;;;5053018;28;20025;-64
2023/05/07 06:53:16;;;;;;;36.22;27.17;;;16.00;99.90;;;;;;5054878;28;20468;-65
2023/05/07 06:55:42;;;;;;;35.78;26.92;;;15.90;85.60;;;;;;5057837;28;20485;-64
2023/05/07 06:58:07;;;;;;;36.45;28.05;;;15.80;75.30;;;;;;5057681;28;20032;-66
2023/05/07 07:00:33;;;;;;;36.13;26.60;;;16.00;99.90;;;;;;5058014;28;20029;-64
2023/05/07 07:03:00;;;;;;;34.85;26.25;;;16.00;68.10;;;;;;5057662;28;20419;-65
2023/05/07 07:05:25;;;;;;;40.03;26.23;;;16.00;73.40;;;;;;5057415;28;20387;-64
2023/05/07 07:07:54;;;;;;;36.05;27.20;;;16.00;71.00;;;;;;5057724;28;20037;-64
2023/05/07 07:10:22;;;;;;;35.10;26.15;;;15.90;87.50;;;;;;5058102;28;20410;-64
2023/05/07 07:12:49;;;;;;;34.22;25.63;;;15.90;59.30;;;;;;5057765;28;20033;-64
2023/05/07 07:15:15;;;;;;;38.28;26.90;;;16.00;77.10;;;;;;5057277;28;20071;-64
2023/05/07 07:17:41;;;;;;;34.80;26.48;;;16.00;71.90;;;;;;5057619;28;20039;-64
2023/05/07 07:20:07;;;;;;;34.20;25.98;;;16.00;71.30;;;;;;5055915;28;20036;-64
2023/05/07 07:22:33;;;;;;;35.65;26.17;;;16.00;69.00;;;;;;5057146;28;20390;-64
2023/05/07 07:24:59;;;;;;;37.10;27.05;;;16.10;55.40;;;;;;5057146;28;20111;-64
2023/05/07 07:27:25;;;;;;;33.97;25.52;;;16.10;73.90;;;;;;5057314;28;20067;-64
2023/05/07 07:29:51;;;;;;;33.05;25.40;;;16.40;46.70;;;;;;5057085;28;20025;-64
2023/05/07 07:32:17;;;;;;;35.42;26.23;;;16.50;58.30;;;;;;5057030;28;20439;-65
2023/05/07 07:34:42;;;;;;;35.88;26.40;;;16.20;34.30;;;;;;5057167;28;20067;-64
2023/05/07 07:37:08;;;;;;;34.60;25.83;;;16.30;68.30;;;;;;5056176;28;20128;-64
2023/05/07 07:39:34;;;;;;;38.88;26.70;;;16.40;47.80;;;;;;5056934;28;20028;-64
2023/05/07 07:42:00;;;;;;;33.67;25.00;;;16.60;54.60;;;;;;5057056;28;20047;-64
2023/05/07 07:44:28;;;;;;;28.88;24.58;;;16.90;10.70;;;;;;5056717;28;20033;-64
2023/05/07 07:46:53;;;;;;;33.60;25.52;;;16.80;13.10;;;;;;5057189;28;20028;-64
2023/05/07 07:49:19;;;;;;;36.50;26.65;;;16.80;1.00;;;;;;5057059;28;20494;-64
2023/05/07 07:51:45;;;;;;;32.03;24.65;;;16.90;1.00;;;;;;5056863;28;20028;-65
2023/05/07 07:54:11;;;;;;;31.20;24.13;;;17.10;6.70;;;;;;5057061;28;20028;-64
2023/05/07 07:56:36;;;;;;;31.90;25.20;;;17.60;10.60;;;;;;5057140;28;20036;-65
2023/05/07 07:59:02;;;;;;;29.55;23.35;;;17.60;1.00;;;;;;5056438;28;20068;-64
2023/05/07 08:01:30;;;;;;;32.85;24.15;;;17.70;1.00;;;;;;5057049;28;20025;-64
2023/05/07 08:03:57;;;;;;;30.23;24.27;;;18.10;1.00;;;;;;5056749;28;20061;-64
2023/05/07 08:06:23;;;;;;;36.53;25.48;;;18.20;1.00;;;;;;5055730;28;20490;-64
2023/05/07 08:08:48;;;;;;;31.58;24.98;;;18.30;1.00;;;;;;5056453;28;20064;-65
2023/05/07 08:11:14;;;;;;;30.30;23.98;;;18.30;1.00;;;;;;5056726;28;20029;-64
2023/05/07 08:13:40;;;;;;;30.80;24.27;;;18.30;1.00;;;;;;5055941;28;20021;-64
2023/05/07 08:16:06;;;;;;;31.05;23.58;;;18.50;1.00;;;;;;5056677;28;20025;-65
2023/05/07 08:18:31;;;;;;;32.50;24.65;;;18.70;1.00;;;;;;5056224;28;20025;-64
2023/05/07 08:20:57;;;;;;;32.67;25.17;;;18.70;1.00;;;;;;5055527;28;20036;-64
2023/05/07 08:23:22;;;;;;;33.45;23.27;;;18.90;1.00;;;;;;5055949;28;20458;-65
2023/05/07 08:25:49;;;;;;;33.30;23.73;;;19.10;1.00;;;;;;5056478;28;20061;-64
2023/05/07 08:28:15;;;;;;;32.03;24.63;;;19.60;1.00;;;;;;5055897;28;20032;-64
2023/05/07 08:30:41;;;;;;;31.88;23.45;;;19.60;99.90;;;;;;5056230;28;20033;-64
2023/05/07 08:33:08;;;;;;;31.02;22.90;;;19.80;99.90;;;;;;5055137;28;20425;-64
2023/05/07 08:35:33;;;;;;;29.58;23.25;;;20.70;99.90;;;;;;5056021;28;20146;-64
2023/05/07 08:37:59;;;;;;;28.85;22.38;;;21.50;13.10;;;;;;5055019;28;20079;-64
2023/05/07 08:40:26;;;;;;;24.63;21.17;;;22.40;99.90;;;;;;5055460;28;20124;-64
2023/05/07 08:42:53;;;;;;;25.30;20.52;;;22.60;99.90;;;;;;5055322;28;20029;-64
2023/05/07 08:45:20;;;;;;;25.00;20.58;;;23.20;99.90;;;;;;5055864;28;20025;-64
2023/05/07 08:47:52;;;;;;;23.27;20.45;;;24.10;99.90;;;;;;5055799;28;20029;-64
2023/05/07 08:50:19;;;;;;;25.73;19.45;;;23.40;99.90;;;;;;5055625;28;20382;-64
2023/05/07 08:52:45;;;;;;;25.10;21.00;;;22.60;12.90;;;;;;5055281;28;20471;-63
2023/05/07 08:55:12;;;;;;;24.35;21.45;;;21.70;1.00;;;;;;5055628;28;20040;-63
2023/05/07 08:57:38;;;;;;;24.13;19.63;;;21.50;99.90;;;;;;5055530;28;20543;-64
2023/05/07 09:00:07;;;;;;;26.75;21.65;;;21.90;99.90;;;;;;5055136;28;20109;-64
2023/05/07 09:02:34;;;;;;;26.25;20.65;;;22.10;99.90;;;;;;5055223;28;20025;-64
2023/05/07 09:05:00;;;;;;;25.98;21.15;;;21.90;99.90;;;;;;5055497;28;20417;-64
2023/05/07 09:07:26;;;;;;;26.13;20.83;;;21.70;1.00;;;;;;5055182;28;20029;-64
2023/05/07 09:09:52;;;;;;;25.63;20.48;;;21.00;99.90;;;;;;5055100;28;20032;-64
2023/05/07 09:12:18;;;;;;;24.77;20.05;;;21.20;1.00;;;;;;5055259;28;20430;-64
2023/05/07 09:14:45;;;;;;;26.50;19.55;;;21.80;99.90;;;;;;5053843;28;20067;-64
2023/05/07 09:17:11;;;;;;;23.52;19.13;;;22.00;1.00;;;;;;5054132;28;20502;-64
2023/05/07 09:19:37;;;;;;;25.00;19.58;;;22.80;76.70;;;;;;5055380;28;20033;-63
2023/05/07 09:22:04;;;;;;;23.70;20.27;;;23.50;99.90;;;;;;5054751;28;20033;-64
2023/05/07 09:24:34;;;;;;;23.85;20.40;;;22.50;99.90;;;;;;5054816;28;20104;-64
2023/05/07 09:27:01;;;;;;;22.02;19.50;;;22.30;1.00;;;;;;5054839;28;20025;-63
2023/05/07 09:29:28;;;;;;;21.63;18.30;;;22.30;1.00;;;;;;5053601;28;20032;-64
2023/05/07 09:31:55;;;;;;;19.92;17.77;;;22.70;1.00;;;;;;5053179;28;20032;-64
2023/05/07 09:34:20;;;;;;;23.15;20.17;;;23.30;99.90;;;;;;5054904;28;20029;-63
2023/05/07 09:36:47;;;;;;;24.48;18.95;;;22.80;99.90;;;;;;5054287;28;20451;-65
2023/05/07 09:39:13;;;;;;;21.30;18.27;;;22.70;99.90;;;;;;5054752;28;20029;-64
2023/05/07 09:41:47;;;;;;;25.73;18.88;;;23.10;99.90;;;;;;5054873;28;20032;-64
2023/05/07 09:44:14;;;;;;;22.17;18.23;;;22.90;1.00;;;;;;5053240;28;20529;-64
2023/05/07 09:46:42;;;;;;;22.33;18.48;;;22.10;99.90;;;;;;5054414;28;20021;-64
2023/05/07 09:49:19;;;;;;;23.95;19.60;;;21.90;1.00;;;;;;5054532;28;20060;-63
2023/05/07 09:51:52;;;;;;;24.90;20.58;;;21.30;1.00;;;;;;5054869;28;20052;-64
2023/05/07 09:54:18;;;;;;;26.60;19.85;;;20.90;1.00;;;;;;5054641;28;20036;-64
2023/05/07 09:56:45;;;;;;;23.48;17.92;;;21.10;1.00;;;;;;5054341;28;20390;-64
2023/05/07 09:59:15;;;;;;;19.58;17.02;;;21.80;1.00;;;;;;5053477;28;20032;-64
2023/05/07 10:01:42;;;;;;;19.95;17.85;;;22.40;99.90;;;;;;5052951;28;20025;-64
2023/05/07 10:04:08;;;;;;;22.45;18.65;;;22.80;99.90;;;;;;5054189;28;20081;-64
2023/05/07 10:06:35;;;;;;;23.23;18.45;;;22.70;99.90;;;;;;5054032;28;20021;-64
2023/05/07 10:09:02;;;;;;;21.48;17.73;;;22.60;99.90;;;;;;5052401;28;20029;-64
2023/05/07 10:11:28;;;;;;;21.02;18.63;;;22.80;1.00;;;;;;5052693;28;20489;-64
2023/05/07 10:13:54;;;;;;;23.92;19.70;;;22.40;99.90;;;;;;5053979;28;20063;-64
2023/05/07 10:16:21;;;;;;;25.30;18.95;;;22.00;99.90;;;;;;5052901;28;20025;-64
2023/05/07 10:18:48;;;;;;;20.95;18.33;;;21.50;99.90;;;;;;5053571;28;20029;-64
2023/05/07 10:21:19;;;;;;;20.00;17.60;;;21.90;1.00;;;;;;5053794;28;20451;-64
2023/05/07 10:23:50;;;;;;;19.55;16.80;;;22.70;99.90;;;;;;5053181;28;20166;-64
2023/05/07 10:26:18;;;;;;;18.05;15.93;;;23.70;99.90;;;;;;5054160;28;20120;-64
2023/05/07 10:28:47;;;;;;;20.83;17.73;;;24.40;20.10;;;;;;5052181;28;20437;-64
2023/05/07 10:31:37;;;;;;;20.25;15.50;;;24.80;99.90;;;;;;5053877;28;20112;-64
2023/05/07 10:34:09;;;;;;;18.48;16.27;;;24.80;99.90;;;;;;5053950;28;20075;-64
2023/05/07 10:36:36;;;;;;;18.85;15.90;;;24.30;99.90;;;;;;5053390;28;20094;-64
2023/05/07 10:39:03;;;;;;;18.88;15.40;;;24.20;99.90;;;;;;5053208;28;20102;-64
2023/05/07 10:41:28;;;;;;;19.90;16.67;;;23.70;99.90;;;;;;5053788;28;20048;-64
2023/05/07 10:43:54;;;;;;;17.08;15.38;;;23.60;99.90;;;;;;5053728;28;20352;-64
2023/05/07 10:46:22;;;;;;;17.85;14.23;;;23.80;99.90;;;;;;5053451;28;20029;-63
2023/05/07 10:51:40;;;;;;;18.35;16.25;;;23.60;99.90;;;;;;5071303;28;20865;-65
2023/05/07 10:54:19;;;;;;;18.55;15.93;;;23.60;99.90;;;;;;5071295;28;20028;-64
2023/05/07 10:56:44;;;;;;;19.58;15.48;;;23.50;99.90;;;;;;5069800;28;20434;-64
2023/05/07 10:59:31;;;;;;;18.75;14.32;;;23.60;1.00;;;;;;5071155;28;20024;-64
2023/05/07 11:02:03;;;;;;;17.10;15.30;;;24.00;1.00;;;;;;5070437;28;20053;-64
2023/05/07 11:04:31;;;;;;;16.70;13.77;;;23.60;99.90;;;;;;5070750;28;20491;-64
2023/05/07 11:07:24;;;;;;;22.08;17.35;;;23.30;99.90;;;;;;5070092;28;20255;-64
2023/05/07 11:12:47;;;;;;;19.85;16.08;;;23.20;99.90;;;;;;5071554;28;20387;-64
2023/05/07 11:15:17;;;;;;;18.17;14.82;;;23.40;1.00;;;;;;5071134;28;20086;-64
2023/05/07 11:17:59;;;;;;;16.40;14.70;;;23.00;99.90;;;;;;5049749;28;20028;-64
2023/05/07 11:20:50;;;;;;;19.52;15.85;;;22.70;1.00;;;;;;5051684;28;20055;-64
2023/05/07 11:23:40;;;;;;;17.90;14.23;;;22.20;99.90;;;;;;5050483;28;20462;-64
2023/05/07 11:26:07;;;;;;;16.67;14.82;;;22.80;99.90;;;;;;5050959;28;20032;-63
2023/05/07 11:28:38;;;;;;;18.30;14.18;;;22.80;99.90;;;;;;5050831;28;20422;-64
2023/05/07 11:31:04;;;;;;;16.77;14.43;;;22.80;51.40;;;;;;5049404;28;20498;-63
2023/05/07 11:33:31;;;;;;;19.85;15.25;;;22.80;1.00;;;;;;5051006;28;20025;-64
2023/05/07 11:35:57;;;;;;;17.25;13.70;;;22.90;99.90;;;;;;5050594;28;20109;-64
2023/05/07 11:38:23;;;;;;;19.73;15.25;;;23.20;99.90;;;;;;5050237;28;20028;-64
2023/05/07 11:40:50;;;;;;;18.67;15.45;;;23.20;1.00;;;;;;5050370;28;20033;-64
2023/05/07 11:43:16;;;;;;;16.23;13.50;;;23.30;99.90;;;;;;5049347;28;20479;-64
2023/05/07 11:45:41;;;;;;;14.32;12.73;;;23.30;99.90;;;;;;5050995;28;20113;-63
2023/05/07 11:48:07;;;;;;;14.20;11.10;;;23.10;99.90;;;;;;5050920;28;20071;-63
2023/05/07 11:50:33;;;;;;;12.40;10.60;;;23.10;99.90;;;;;;5050447;28;20116;-64
2023/05/07 11:52:58;;;;;;;14.02;11.40;;;23.20;99.90;;;;;;5050262;28;20021;-64
2023/05/07 11:55:25;;;;;;;13.15;10.70;;;22.60;99.90;;;;;;5050715;28;20112;-64
2023/05/07 11:57:51;;;;;;;15.38;12.52;;;22.90;1.00;;;;;;5050469;28;20049;-64
2023/05/07 12:00:17;;;;;;;14.55;12.70;;;23.00;1.00;;;;;;5050225;28;20395;-64
2023/05/07 12:02:45;;;;;;;18.48;13.10;;;23.00;1.00;;;;;;5050276;28;20026;-64
2023/05/07 12:05:10;;;;;;;17.90;14.25;;;23.30;99.90;;;;;;5049817;28;20035;-64
2023/05/07 12:07:36;;;;;;;15.00;11.45;;;22.90;1.00;;;;;;5050549;28;20025;-64
2023/05/07 12:10:06;;;;;;;11.75;10.20;;;22.30;1.00;;;;;;5050262;28;20486;-64
2023/05/07 12:12:38;;;;;;;15.55;10.90;;;22.30;1.00;;;;;;5049868;28;20052;-63
2023/05/07 12:15:05;;;;;;;12.07;10.85;;;22.40;1.00;;;;;;5050061;28;20049;-64
2023/05/07 12:17:30;;;;;;;15.43;12.98;;;22.50;1.00;;;;;;5049049;28;20037;-64
2023/05/07 12:19:56;;;;;;;14.00;12.50;;;22.40;1.00;;;;;;5050354;28;20367;-65
2023/05/07 12:22:22;;;;;;;15.75;10.35;;;22.40;40.90;;;;;;5044730;28;20033;-65
2023/05/07 12:24:49;;;;;;;13.60;10.27;;;22.20;99.90;;;;;;5036286;28;20029;-65
2023/05/07 12:27:16;;;;;;;13.85;11.68;;;22.30;1.00;;;;;;5035158;28;20026;-65
2023/05/07 12:29:49;;;;;;;13.70;10.75;;;22.10;99.90;;;;;;5035697;28;20030;-65
2023/05/07 12:32:20;;;;;;;14.23;11.45;;;22.30;44.90;;;;;;5036166;28;20136;-65